sensor_id;sensor_type;location;lat;lon;timestamp;temperature;humidity
72905;DHT22;61048;52.162;4.516;2023-02-28T00:01:20;12.00;48.60
72905;DHT22;61048;52.162;4.516;2023-02-28T00:03:47;12.00;48.60
72905;DHT22;61048;52.162;4.516;2023-02-28T00:06:16;12.00;48.50
72905;DHT22;61048;52.162;4.516;2023-02-28T00:08:43;12.00;48.60
72905;DHT22;61048;52.162;4.516;2023-02-28T00:11:11;12.00;48.50
72905;DHT22;61048;52.162;4.516;2023-02-28T00:13:40;12.00;48.70
72905;DHT22;61048;52.162;4.516;2023-02-28T00:16:09;12.00;48.60
72905;DHT22;61048;52.162;4.516;2023-02-28T00:18:37;12.00;48.70
72905;DHT22;61048;52.162;4.516;2023-02-28T00:21:04;12.00;48.70
72905;DHT22;61048;52.162;4.516;2023-02-28T00:23:33;12.00;48.60
72905;DHT22;61048;52.162;4.516;2023-02-28T00:26:00;12.00;48.70
72905;DHT22;61048;52.162;4.516;2023-02-28T00:28:27;12.00;48.70
72905;DHT22;61048;52.162;4.516;2023-02-28T00:30:54;12.00;48.70
72905;DHT22;61048;52.162;4.516;2023-02-28T00:33:22;12.00;48.70
72905;DHT22;61048;52.162;4.516;2023-02-28T00:35:49;12.00;48.70
72905;DHT22;61048;52.162;4.516;2023-02-28T00:38:18;12.00;48.70
72905;DHT22;61048;52.162;4.516;2023-02-28T00:40:46;12.00;48.70
72905;DHT22;61048;52.162;4.516;2023-02-28T00:43:13;12.00;48.80
72905;DHT22;61048;52.162;4.516;2023-02-28T00:45:40;12.00;48.80
72905;DHT22;61048;52.162;4.516;2023-02-28T00:48:06;12.00;48.90
72905;DHT22;61048;52.162;4.516;2023-02-28T00:50:33;12.00;48.80
72905;DHT22;61048;52.162;4.516;2023-02-28T00:53:00;12.00;48.80
72905;DHT22;61048;52.162;4.516;2023-02-28T00:55:27;12.00;48.90
72905;DHT22;61048;52.162;4.516;2023-02-28T00:57:55;12.00;48.90
72905;DHT22;61048;52.162;4.516;2023-02-28T01:00:22;12.00;48.90
72905;DHT22;61048;52.162;4.516;2023-02-28T01:02:49;12.00;48.80
72905;DHT22;61048;52.162;4.516;2023-02-28T01:05:16;12.00;48.90
72905;DHT22;61048;52.162;4.516;2023-02-28T01:07:42;12.00;48.90
72905;DHT22;61048;52.162;4.516;2023-02-28T01:10:10;12.00;49.00
72905;DHT22;61048;52.162;4.516;2023-02-28T01:12:37;12.00;48.90
72905;DHT22;61048;52.162;4.516;2023-02-28T01:15:06;12.00;48.90
72905;DHT22;61048;52.162;4.516;2023-02-28T01:17:33;12.00;49.00
72905;DHT22;61048;52.162;4.516;2023-02-28T01:20:00;12.00;49.10
72905;DHT22;61048;52.162;4.516;2023-02-28T01:22:27;11.90;49.00
72905;DHT22;61048;52.162;4.516;2023-02-28T01:24:54;12.00;49.00
72905;DHT22;61048;52.162;4.516;2023-02-28T01:27:21;11.90;49.00
72905;DHT22;61048;52.162;4.516;2023-02-28T01:29:48;11.90;49.10
72905;DHT22;61048;52.162;4.516;2023-02-28T01:32:16;11.90;49.10
72905;DHT22;61048;52.162;4.516;2023-02-28T01:34:43;11.90;49.00
72905;DHT22;61048;52.162;4.516;2023-02-28T01:37:10;11.90;49.10
72905;DHT22;61048;52.162;4.516;2023-02-28T01:39:36;11.90;49.10
72905;DHT22;61048;52.162;4.516;2023-02-28T01:42:03;11.90;49.10
72905;DHT22;61048;52.162;4.516;2023-02-28T01:47:41;11.90;49.10
72905;DHT22;61048;52.162;4.516;2023-02-28T01:50:13;11.90;49.20
72905;DHT22;61048;52.162;4.516;2023-02-28T01:52:41;11.90;49.10
72905;DHT22;61048;52.162;4.516;2023-02-28T01:55:10;11.90;49.20
72905;DHT22;61048;52.162;4.516;2023-02-28T01:57:42;11.90;49.20
72905;DHT22;61048;52.162;4.516;2023-02-28T02:00:11;11.90;49.20
72905;DHT22;61048;52.162;4.516;2023-02-28T02:02:43;11.90;49.30
72905;DHT22;61048;52.162;4.516;2023-02-28T02:05:14;11.90;49.30
72905;DHT22;61048;52.162;4.516;2023-02-28T02:07:44;11.90;49.20
72905;DHT22;61048;52.162;4.516;2023-02-28T02:10:14;11.90;49.30
72905;DHT22;61048;52.162;4.516;2023-02-28T02:12:55;11.90;49.30
72905;DHT22;61048;52.162;4.516;2023-02-28T02:15:30;11.90;49.30
72905;DHT22;61048;52.162;4.516;2023-02-28T02:18:05;11.90;49.30
72905;DHT22;61048;52.162;4.516;2023-02-28T02:24:00;11.90;49.30
72905;DHT22;61048;52.162;4.516;2023-02-28T02:26:47;11.90;49.30
72905;DHT22;61048;52.162;4.516;2023-02-28T02:29:40;11.90;49.40
72905;DHT22;61048;52.162;4.516;2023-02-28T02:32:28;11.90;49.30
72905;DHT22;61048;52.162;4.516;2023-02-28T02:35:11;11.90;49.40
72905;DHT22;61048;52.162;4.516;2023-02-28T02:37:42;11.90;49.30
72905;DHT22;61048;52.162;4.516;2023-02-28T02:40:14;11.90;49.40
72905;DHT22;61048;52.162;4.516;2023-02-28T02:42:49;11.90;49.40
72905;DHT22;61048;52.162;4.516;2023-02-28T02:45:21;11.90;49.40
72905;DHT22;61048;52.162;4.516;2023-02-28T02:47:50;11.90;49.50
72905;DHT22;61048;52.162;4.516;2023-02-28T02:50:22;11.90;49.50
72905;DHT22;61048;52.162;4.516;2023-02-28T02:52:53;11.90;49.40
72905;DHT22;61048;52.162;4.516;2023-02-28T02:55:22;11.90;49.50
72905;DHT22;61048;52.162;4.516;2023-02-28T02:57:53;11.90;49.50
72905;DHT22;61048;52.162;4.516;2023-02-28T03:00:24;11.90;49.50
72905;DHT22;61048;52.162;4.516;2023-02-28T03:02:54;11.90;49.50
72905;DHT22;61048;52.162;4.516;2023-02-28T03:05:26;11.90;49.60
72905;DHT22;61048;52.162;4.516;2023-02-28T03:07:54;11.90;49.60
72905;DHT22;61048;52.162;4.516;2023-02-28T03:10:29;11.90;49.50
72905;DHT22;61048;52.162;4.516;2023-02-28T03:13:19;11.90;49.60
72905;DHT22;61048;52.162;4.516;2023-02-28T03:15:58;11.90;49.70
72905;DHT22;61048;52.162;4.516;2023-02-28T03:18:33;11.90;49.70
72905;DHT22;61048;52.162;4.516;2023-02-28T03:21:11;11.90;49.70
72905;DHT22;61048;52.162;4.516;2023-02-28T03:23:45;11.90;49.70
72905;DHT22;61048;52.162;4.516;2023-02-28T03:26:20;11.90;49.60
72905;DHT22;61048;52.162;4.516;2023-02-28T03:28:53;11.90;49.70
72905;DHT22;61048;52.162;4.516;2023-02-28T03:31:27;11.90;49.60
72905;DHT22;61048;52.162;4.516;2023-02-28T03:33:59;11.90;49.70
72905;DHT22;61048;52.162;4.516;2023-02-28T03:36:31;11.90;49.70
72905;DHT22;61048;52.162;4.516;2023-02-28T03:39:04;11.90;49.70
72905;DHT22;61048;52.162;4.516;2023-02-28T03:41:36;11.90;49.70
72905;DHT22;61048;52.162;4.516;2023-02-28T03:44:09;11.90;49.70
72905;DHT22;61048;52.162;4.516;2023-02-28T03:46:44;11.90;49.80
72905;DHT22;61048;52.162;4.516;2023-02-28T03:49:16;11.90;49.70
72905;DHT22;61048;52.162;4.516;2023-02-28T03:51:47;11.90;49.80
72905;DHT22;61048;52.162;4.516;2023-02-28T03:54:19;11.90;49.70
72905;DHT22;61048;52.162;4.516;2023-02-28T03:56:52;11.90;49.80
72905;DHT22;61048;52.162;4.516;2023-02-28T03:59:23;11.90;49.70
72905;DHT22;61048;52.162;4.516;2023-02-28T04:01:52;11.90;49.80
72905;DHT22;61048;52.162;4.516;2023-02-28T04:04:21;11.90;49.80
72905;DHT22;61048;52.162;4.516;2023-02-28T04:06:51;11.90;49.70
72905;DHT22;61048;52.162;4.516;2023-02-28T04:09:18;11.90;49.80
72905;DHT22;61048;52.162;4.516;2023-02-28T04:11:48;11.90;49.80
72905;DHT22;61048;52.162;4.516;2023-02-28T04:14:17;11.90;49.80
72905;DHT22;61048;52.162;4.516;2023-02-28T04:16:44;11.90;49.80
72905;DHT22;61048;52.162;4.516;2023-02-28T04:19:12;11.90;49.80
72905;DHT22;61048;52.162;4.516;2023-02-28T04:21:42;11.90;49.80
72905;DHT22;61048;52.162;4.516;2023-02-28T04:24:12;11.90;49.80
72905;DHT22;61048;52.162;4.516;2023-02-28T04:26:41;11.90;49.80
72905;DHT22;61048;52.162;4.516;2023-02-28T04:29:10;11.90;49.80
72905;DHT22;61048;52.162;4.516;2023-02-28T04:31:37;11.90;49.90
72905;DHT22;61048;52.162;4.516;2023-02-28T04:34:04;11.90;49.90
72905;DHT22;61048;52.162;4.516;2023-02-28T04:36:31;11.90;49.90
72905;DHT22;61048;52.162;4.516;2023-02-28T04:38:58;11.90;50.00
72905;DHT22;61048;52.162;4.516;2023-02-28T04:41:27;11.90;50.00
72905;DHT22;61048;52.162;4.516;2023-02-28T04:43:53;11.90;50.00
72905;DHT22;61048;52.162;4.516;2023-02-28T04:46:21;11.90;50.00
72905;DHT22;61048;52.162;4.516;2023-02-28T04:48:49;11.90;50.00
72905;DHT22;61048;52.162;4.516;2023-02-28T04:51:17;11.90;50.00
72905;DHT22;61048;52.162;4.516;2023-02-28T04:53:45;11.90;50.00
72905;DHT22;61048;52.162;4.516;2023-02-28T04:56:14;11.90;50.00
72905;DHT22;61048;52.162;4.516;2023-02-28T04:58:42;11.90;50.00
72905;DHT22;61048;52.162;4.516;2023-02-28T05:01:17;11.90;50.00
72905;DHT22;61048;52.162;4.516;2023-02-28T05:03:44;11.90;50.00
72905;DHT22;61048;52.162;4.516;2023-02-28T05:06:12;11.90;50.00
72905;DHT22;61048;52.162;4.516;2023-02-28T05:08:40;11.90;50.10
72905;DHT22;61048;52.162;4.516;2023-02-28T05:11:12;11.90;50.10
72905;DHT22;61048;52.162;4.516;2023-02-28T05:13:41;11.90;50.10
72905;DHT22;61048;52.162;4.516;2023-02-28T05:16:08;11.90;50.10
72905;DHT22;61048;52.162;4.516;2023-02-28T05:18:35;11.90;50.10
72905;DHT22;61048;52.162;4.516;2023-02-28T05:21:02;11.90;50.10
72905;DHT22;61048;52.162;4.516;2023-02-28T05:23:29;11.90;50.10
72905;DHT22;61048;52.162;4.516;2023-02-28T05:25:56;11.90;50.10
72905;DHT22;61048;52.162;4.516;2023-02-28T05:28:23;11.90;50.20
72905;DHT22;61048;52.162;4.516;2023-02-28T05:30:51;11.90;50.10
72905;DHT22;61048;52.162;4.516;2023-02-28T05:33:18;11.90;50.20
72905;DHT22;61048;52.162;4.516;2023-02-28T05:35:45;11.90;50.20
72905;DHT22;61048;52.162;4.516;2023-02-28T05:38:12;11.90;50.20
72905;DHT22;61048;52.162;4.516;2023-02-28T05:40:39;11.90;50.20
72905;DHT22;61048;52.162;4.516;2023-02-28T05:43:10;11.90;50.10
72905;DHT22;61048;52.162;4.516;2023-02-28T05:45:37;11.90;50.20
72905;DHT22;61048;52.162;4.516;2023-02-28T05:48:06;11.90;50.20
72905;DHT22;61048;52.162;4.516;2023-02-28T05:50:33;11.90;50.30
72905;DHT22;61048;52.162;4.516;2023-02-28T05:52:59;11.90;50.30
72905;DHT22;61048;52.162;4.516;2023-02-28T05:55:26;11.90;50.30
72905;DHT22;61048;52.162;4.516;2023-02-28T05:57:53;11.90;50.30
72905;DHT22;61048;52.162;4.516;2023-02-28T06:00:21;11.90;50.30
72905;DHT22;61048;52.162;4.516;2023-02-28T06:02:48;11.90;50.30
72905;DHT22;61048;52.162;4.516;2023-02-28T06:05:17;11.90;50.40
72905;DHT22;61048;52.162;4.516;2023-02-28T06:07:44;11.90;50.30
72905;DHT22;61048;52.162;4.516;2023-02-28T06:10:11;11.90;50.30
72905;DHT22;61048;52.162;4.516;2023-02-28T06:12:40;11.90;50.30
72905;DHT22;61048;52.162;4.516;2023-02-28T06:15:10;11.90;50.40
72905;DHT22;61048;52.162;4.516;2023-02-28T06:17:38;11.90;50.40
72905;DHT22;61048;52.162;4.516;2023-02-28T06:20:06;11.90;50.40
72905;DHT22;61048;52.162;4.516;2023-02-28T06:22:35;11.90;50.50
72905;DHT22;61048;52.162;4.516;2023-02-28T06:25:02;11.90;50.50
72905;DHT22;61048;52.162;4.516;2023-02-28T06:27:30;12.00;50.50
72905;DHT22;61048;52.162;4.516;2023-02-28T06:29:57;11.90;50.50
72905;DHT22;61048;52.162;4.516;2023-02-28T06:32:24;11.90;50.60
72905;DHT22;61048;52.162;4.516;2023-02-28T06:34:51;12.00;50.60
72905;DHT22;61048;52.162;4.516;2023-02-28T06:37:18;12.00;50.60
72905;DHT22;61048;52.162;4.516;2023-02-28T06:39:47;11.90;50.60
72905;DHT22;61048;52.162;4.516;2023-02-28T06:42:13;12.00;50.60
72905;DHT22;61048;52.162;4.516;2023-02-28T06:44:40;12.00;50.70
72905;DHT22;61048;52.162;4.516;2023-02-28T06:47:08;12.00;50.70
72905;DHT22;61048;52.162;4.516;2023-02-28T06:49:36;12.00;50.70
72905;DHT22;61048;52.162;4.516;2023-02-28T06:52:04;12.00;50.60
72905;DHT22;61048;52.162;4.516;2023-02-28T06:54:31;12.00;50.60
72905;DHT22;61048;52.162;4.516;2023-02-28T06:56:59;12.00;50.60
72905;DHT22;61048;52.162;4.516;2023-02-28T06:59:26;12.00;50.60
72905;DHT22;61048;52.162;4.516;2023-02-28T07:01:53;12.00;50.60
72905;DHT22;61048;52.162;4.516;2023-02-28T07:04:20;12.00;50.60
72905;DHT22;61048;52.162;4.516;2023-02-28T07:06:47;12.00;50.60
72905;DHT22;61048;52.162;4.516;2023-02-28T07:09:14;12.00;50.60
72905;DHT22;61048;52.162;4.516;2023-02-28T07:11:41;12.00;50.70
72905;DHT22;61048;52.162;4.516;2023-02-28T07:14:10;12.00;50.60
72905;DHT22;61048;52.162;4.516;2023-02-28T07:16:37;12.00;50.60
72905;DHT22;61048;52.162;4.516;2023-02-28T07:19:04;12.00;50.60
72905;DHT22;61048;52.162;4.516;2023-02-28T07:21:30;12.00;50.70
72905;DHT22;61048;52.162;4.516;2023-02-28T07:23:57;12.00;50.60
72905;DHT22;61048;52.162;4.516;2023-02-28T07:26:24;12.00;50.60
72905;DHT22;61048;52.162;4.516;2023-02-28T07:28:51;12.00;50.60
72905;DHT22;61048;52.162;4.516;2023-02-28T07:31:20;12.00;50.60
72905;DHT22;61048;52.162;4.516;2023-02-28T07:33:46;12.00;50.60
72905;DHT22;61048;52.162;4.516;2023-02-28T07:36:16;12.00;50.60
72905;DHT22;61048;52.162;4.516;2023-02-28T07:38:46;12.00;50.70
72905;DHT22;61048;52.162;4.516;2023-02-28T07:41:15;12.00;50.60
72905;DHT22;61048;52.162;4.516;2023-02-28T07:43:42;12.00;50.70
72905;DHT22;61048;52.162;4.516;2023-02-28T07:46:11;12.00;50.70
72905;DHT22;61048;52.162;4.516;2023-02-28T07:48:41;12.00;50.70
72905;DHT22;61048;52.162;4.516;2023-02-28T07:51:08;12.00;50.70
72905;DHT22;61048;52.162;4.516;2023-02-28T07:53:35;12.00;50.60
72905;DHT22;61048;52.162;4.516;2023-02-28T07:56:03;12.00;50.70
72905;DHT22;61048;52.162;4.516;2023-02-28T07:58:30;12.00;50.70
72905;DHT22;61048;52.162;4.516;2023-02-28T08:01:04;12.00;50.70
72905;DHT22;61048;52.162;4.516;2023-02-28T08:03:31;12.00;50.70
72905;DHT22;61048;52.162;4.516;2023-02-28T08:06:00;12.00;50.70
72905;DHT22;61048;52.162;4.516;2023-02-28T08:08:27;12.00;50.70
72905;DHT22;61048;52.162;4.516;2023-02-28T08:10:58;12.00;50.70
72905;DHT22;61048;52.162;4.516;2023-02-28T08:13:26;12.00;50.70
72905;DHT22;61048;52.162;4.516;2023-02-28T08:15:53;12.00;50.70
72905;DHT22;61048;52.162;4.516;2023-02-28T08:18:20;12.00;50.70
72905;DHT22;61048;52.162;4.516;2023-02-28T08:20:48;12.00;50.70
72905;DHT22;61048;52.162;4.516;2023-02-28T08:23:16;12.00;50.80
72905;DHT22;61048;52.162;4.516;2023-02-28T08:25:43;12.00;50.70
72905;DHT22;61048;52.162;4.516;2023-02-28T08:28:10;12.00;50.80
72905;DHT22;61048;52.162;4.516;2023-02-28T08:30:37;12.00;50.70
72905;DHT22;61048;52.162;4.516;2023-02-28T08:33:06;12.00;50.80
72905;DHT22;61048;52.162;4.516;2023-02-28T08:35:35;12.00;50.80
72905;DHT22;61048;52.162;4.516;2023-02-28T08:38:02;12.00;50.80
72905;DHT22;61048;52.162;4.516;2023-02-28T08:40:31;12.00;50.80
72905;DHT22;61048;52.162;4.516;2023-02-28T08:42:57;12.00;50.80
72905;DHT22;61048;52.162;4.516;2023-02-28T08:45:25;12.00;50.80
72905;DHT22;61048;52.162;4.516;2023-02-28T08:47:52;12.10;50.80
72905;DHT22;61048;52.162;4.516;2023-02-28T08:50:20;12.00;50.80
72905;DHT22;61048;52.162;4.516;2023-02-28T08:52:47;12.00;50.80
72905;DHT22;61048;52.162;4.516;2023-02-28T08:55:14;12.10;50.80
72905;DHT22;61048;52.162;4.516;2023-02-28T08:57:43;12.00;50.80
72905;DHT22;61048;52.162;4.516;2023-02-28T09:00:11;12.00;50.80
72905;DHT22;61048;52.162;4.516;2023-02-28T09:02:39;12.10;50.80
72905;DHT22;61048;52.162;4.516;2023-02-28T09:05:07;12.00;50.80
72905;DHT22;61048;52.162;4.516;2023-02-28T09:07:34;12.10;50.80
72905;DHT22;61048;52.162;4.516;2023-02-28T09:10:01;12.10;50.80
72905;DHT22;61048;52.162;4.516;2023-02-28T09:12:33;12.10;50.80
72905;DHT22;61048;52.162;4.516;2023-02-28T09:15:01;12.10;50.90
72905;DHT22;61048;52.162;4.516;2023-02-28T09:17:28;12.10;50.90
72905;DHT22;61048;52.162;4.516;2023-02-28T09:19:55;12.10;50.90
72905;DHT22;61048;52.162;4.516;2023-02-28T09:22:22;12.10;50.90
72905;DHT22;61048;52.162;4.516;2023-02-28T09:24:49;12.10;50.90
72905;DHT22;61048;52.162;4.516;2023-02-28T09:27:16;12.10;50.90
72905;DHT22;61048;52.162;4.516;2023-02-28T09:29:43;12.10;51.00
72905;DHT22;61048;52.162;4.516;2023-02-28T09:32:11;12.10;51.00
72905;DHT22;61048;52.162;4.516;2023-02-28T09:34:38;12.10;51.00
72905;DHT22;61048;52.162;4.516;2023-02-28T09:37:05;12.10;50.90
72905;DHT22;61048;52.162;4.516;2023-02-28T09:39:32;12.10;50.90
72905;DHT22;61048;52.162;4.516;2023-02-28T09:41:59;12.10;50.90
72905;DHT22;61048;52.162;4.516;2023-02-28T09:44:30;12.10;50.90
72905;DHT22;61048;52.162;4.516;2023-02-28T09:47:01;12.10;50.90
72905;DHT22;61048;52.162;4.516;2023-02-28T09:49:38;12.10;50.90
72905;DHT22;61048;52.162;4.516;2023-02-28T09:52:11;12.10;51.00
72905;DHT22;61048;52.162;4.516;2023-02-28T09:54:39;12.10;50.90
72905;DHT22;61048;52.162;4.516;2023-02-28T09:57:08;12.20;50.90
72905;DHT22;61048;52.162;4.516;2023-02-28T09:59:50;12.20;50.90
72905;DHT22;61048;52.162;4.516;2023-02-28T10:02:41;12.20;50.90
72905;DHT22;61048;52.162;4.516;2023-02-28T10:05:13;12.20;50.90
72905;DHT22;61048;52.162;4.516;2023-02-28T10:07:55;12.20;50.80
72905;DHT22;61048;52.162;4.516;2023-02-28T10:10:28;12.20;50.90
72905;DHT22;61048;52.162;4.516;2023-02-28T10:12:59;12.20;50.80
72905;DHT22;61048;52.162;4.516;2023-02-28T10:15:29;12.20;50.90
72905;DHT22;61048;52.162;4.516;2023-02-28T10:17:59;12.20;50.90
72905;DHT22;61048;52.162;4.516;2023-02-28T10:20:28;12.30;50.90
72905;DHT22;61048;52.162;4.516;2023-02-28T10:23:01;12.30;50.80
72905;DHT22;61048;52.162;4.516;2023-02-28T10:25:34;12.30;50.80
72905;DHT22;61048;52.162;4.516;2023-02-28T10:28:08;12.30;50.70
72905;DHT22;61048;52.162;4.516;2023-02-28T10:30:38;12.30;50.70
72905;DHT22;61048;52.162;4.516;2023-02-28T10:33:14;12.30;50.70
72905;DHT22;61048;52.162;4.516;2023-02-28T10:35:45;12.30;50.70
72905;DHT22;61048;52.162;4.516;2023-02-28T10:38:16;12.30;50.70
72905;DHT22;61048;52.162;4.516;2023-02-28T10:40:43;12.30;50.70
72905;DHT22;61048;52.162;4.516;2023-02-28T10:43:20;12.30;50.70
72905;DHT22;61048;52.162;4.516;2023-02-28T10:45:56;12.30;50.70
72905;DHT22;61048;52.162;4.516;2023-02-28T10:48:29;12.30;50.60
72905;DHT22;61048;52.162;4.516;2023-02-28T10:50:58;12.30;50.60
72905;DHT22;61048;52.162;4.516;2023-02-28T10:53:32;12.30;50.60
72905;DHT22;61048;52.162;4.516;2023-02-28T10:56:02;12.30;50.60
72905;DHT22;61048;52.162;4.516;2023-02-28T10:58:47;12.30;50.60
72905;DHT22;61048;52.162;4.516;2023-02-28T11:01:16;12.30;50.50
72905;DHT22;61048;52.162;4.516;2023-02-28T11:03:43;12.30;50.50
72905;DHT22;61048;52.162;4.516;2023-02-28T11:06:17;12.30;50.40
72905;DHT22;61048;52.162;4.516;2023-02-28T11:08:47;12.40;50.40
72905;DHT22;61048;52.162;4.516;2023-02-28T11:11:15;12.40;50.40
72905;DHT22;61048;52.162;4.516;2023-02-28T11:13:44;12.40;50.30
72905;DHT22;61048;52.162;4.516;2023-02-28T11:16:13;12.40;50.20
72905;DHT22;61048;52.162;4.516;2023-02-28T11:18:44;12.50;50.20
72905;DHT22;61048;52.162;4.516;2023-02-28T11:21:21;12.50;50.20
72905;DHT22;61048;52.162;4.516;2023-02-28T11:23:52;12.50;50.20
72905;DHT22;61048;52.162;4.516;2023-02-28T11:26:41;12.50;50.20
72905;DHT22;61048;52.162;4.516;2023-02-28T11:29:18;12.50;50.10
72905;DHT22;61048;52.162;4.516;2023-02-28T11:32:02;12.50;50.00
72905;DHT22;61048;52.162;4.516;2023-02-28T11:34:30;12.50;50.10
72905;DHT22;61048;52.162;4.516;2023-02-28T11:36:59;12.50;50.10
72905;DHT22;61048;52.162;4.516;2023-02-28T11:39:30;12.50;50.00
72905;DHT22;61048;52.162;4.516;2023-02-28T11:42:07;12.50;50.00
72905;DHT22;61048;52.162;4.516;2023-02-28T11:44:56;12.50;50.00
72905;DHT22;61048;52.162;4.516;2023-02-28T11:47:33;12.60;49.90
72905;DHT22;61048;52.162;4.516;2023-02-28T11:50:34;12.60;49.80
72905;DHT22;61048;52.162;4.516;2023-02-28T11:53:14;12.60;49.80
72905;DHT22;61048;52.162;4.516;2023-02-28T11:55:47;12.60;49.80
72905;DHT22;61048;52.162;4.516;2023-02-28T11:58:33;12.60;49.70
72905;DHT22;61048;52.162;4.516;2023-02-28T12:01:26;12.60;49.60
72905;DHT22;61048;52.162;4.516;2023-02-28T12:04:17;12.60;49.50
72905;DHT22;61048;52.162;4.516;2023-02-28T12:06:49;12.60;49.30
72905;DHT22;61048;52.162;4.516;2023-02-28T12:09:37;12.70;49.30
72905;DHT22;61048;52.162;4.516;2023-02-28T12:12:15;12.70;49.30
72905;DHT22;61048;52.162;4.516;2023-02-28T12:14:53;12.70;49.30
72905;DHT22;61048;52.162;4.516;2023-02-28T12:17:32;12.70;49.20
72905;DHT22;61048;52.162;4.516;2023-02-28T12:20:08;12.70;49.20
72905;DHT22;61048;52.162;4.516;2023-02-28T12:22:41;12.70;49.20
72905;DHT22;61048;52.162;4.516;2023-02-28T12:25:39;12.70;49.20
72905;DHT22;61048;52.162;4.516;2023-02-28T12:28:10;12.80;49.40
72905;DHT22;61048;52.162;4.516;2023-02-28T12:30:43;12.70;49.10
72905;DHT22;61048;52.162;4.516;2023-02-28T12:33:16;12.80;49.10
72905;DHT22;61048;52.162;4.516;2023-02-28T12:35:48;12.80;49.10
72905;DHT22;61048;52.162;4.516;2023-02-28T12:38:20;12.70;49.00
72905;DHT22;61048;52.162;4.516;2023-02-28T12:40:53;12.80;48.90
72905;DHT22;61048;52.162;4.516;2023-02-28T12:43:22;12.80;48.90
72905;DHT22;61048;52.162;4.516;2023-02-28T12:45:55;12.80;49.00
72905;DHT22;61048;52.162;4.516;2023-02-28T12:48:28;12.80;49.00
72905;DHT22;61048;52.162;4.516;2023-02-28T12:50:56;12.80;48.50
72905;DHT22;61048;52.162;4.516;2023-02-28T12:53:26;12.80;48.60
72905;DHT22;61048;52.162;4.516;2023-02-28T12:56:07;12.80;48.70
72905;DHT22;61048;52.162;4.516;2023-02-28T12:58:39;12.80;48.60
72905;DHT22;61048;52.162;4.516;2023-02-28T13:01:38;12.80;48.30
72905;DHT22;61048;52.162;4.516;2023-02-28T13:04:32;12.80;48.60
72905;DHT22;61048;52.162;4.516;2023-02-28T13:10:04;12.90;48.60
72905;DHT22;61048;52.162;4.516;2023-02-28T13:12:34;12.90;48.50
72905;DHT22;61048;52.162;4.516;2023-02-28T13:15:05;12.90;48.60
72905;DHT22;61048;52.162;4.516;2023-02-28T13:17:39;12.90;48.50
72905;DHT22;61048;52.162;4.516;2023-02-28T13:20:16;12.90;48.50
72905;DHT22;61048;52.162;4.516;2023-02-28T13:22:45;12.90;48.50
72905;DHT22;61048;52.162;4.516;2023-02-28T13:34:41;12.90;48.00
72905;DHT22;61048;52.162;4.516;2023-02-28T13:37:33;12.90;47.90
72905;DHT22;61048;52.162;4.516;2023-02-28T13:42:49;12.90;47.80
72905;DHT22;61048;52.162;4.516;2023-02-28T13:45:26;13.00;47.80
72905;DHT22;61048;52.162;4.516;2023-02-28T13:47:59;13.00;47.80
72905;DHT22;61048;52.162;4.516;2023-02-28T13:50:32;13.00;47.60
72905;DHT22;61048;52.162;4.516;2023-02-28T13:56:10;13.00;47.50
72905;DHT22;61048;52.162;4.516;2023-02-28T13:58:53;13.00;47.50
72905;DHT22;61048;52.162;4.516;2023-02-28T14:01:42;13.00;47.40
72905;DHT22;61048;52.162;4.516;2023-02-28T14:04:29;13.00;47.50
72905;DHT22;61048;52.162;4.516;2023-02-28T14:07:03;13.00;47.50
72905;DHT22;61048;52.162;4.516;2023-02-28T14:09:32;13.00;47.70
72905;DHT22;61048;52.162;4.516;2023-02-28T14:15:01;13.00;47.50
72905;DHT22;61048;52.162;4.516;2023-02-28T14:17:28;13.00;47.40
72905;DHT22;61048;52.162;4.516;2023-02-28T14:19:56;13.00;47.50
72905;DHT22;61048;52.162;4.516;2023-02-28T14:22:52;13.00;47.20
72905;DHT22;61048;52.162;4.516;2023-02-28T14:25:30;13.00;46.90
72905;DHT22;61048;52.162;4.516;2023-02-28T14:28:11;13.00;47.00
72905;DHT22;61048;52.162;4.516;2023-02-28T14:30:57;13.00;46.80
72905;DHT22;61048;52.162;4.516;2023-02-28T14:33:34;13.00;46.90
72905;DHT22;61048;52.162;4.516;2023-02-28T14:36:12;13.00;46.70
72905;DHT22;61048;52.162;4.516;2023-02-28T14:38:45;13.00;46.60
72905;DHT22;61048;52.162;4.516;2023-02-28T14:41:18;13.00;46.60
72905;DHT22;61048;52.162;4.516;2023-02-28T14:43:53;13.00;46.30
72905;DHT22;61048;52.162;4.516;2023-02-28T14:46:21;13.10;46.60
72905;DHT22;61048;52.162;4.516;2023-02-28T14:48:49;13.10;46.40
72905;DHT22;61048;52.162;4.516;2023-02-28T14:51:21;13.10;46.50
72905;DHT22;61048;52.162;4.516;2023-02-28T14:53:52;13.10;46.60
72905;DHT22;61048;52.162;4.516;2023-02-28T14:56:24;13.10;46.70
72905;DHT22;61048;52.162;4.516;2023-02-28T14:58:54;13.10;46.30
72905;DHT22;61048;52.162;4.516;2023-02-28T15:01:24;13.10;46.30
72905;DHT22;61048;52.162;4.516;2023-02-28T15:03:59;13.10;46.80
72905;DHT22;61048;52.162;4.516;2023-02-28T15:06:27;13.20;46.80
72905;DHT22;61048;52.162;4.516;2023-02-28T15:09:15;13.20;46.50
72905;DHT22;61048;52.162;4.516;2023-02-28T15:11:46;13.20;46.20
72905;DHT22;61048;52.162;4.516;2023-02-28T15:14:17;13.20;46.10
72905;DHT22;61048;52.162;4.516;2023-02-28T15:16:47;13.20;46.00
72905;DHT22;61048;52.162;4.516;2023-02-28T15:19:20;13.20;45.90
72905;DHT22;61048;52.162;4.516;2023-02-28T15:21:52;13.20;45.80
72905;DHT22;61048;52.162;4.516;2023-02-28T15:24:30;13.20;46.00
72905;DHT22;61048;52.162;4.516;2023-02-28T15:27:03;13.20;45.60
72905;DHT22;61048;52.162;4.516;2023-02-28T15:29:34;13.10;45.70
72905;DHT22;61048;52.162;4.516;2023-02-28T15:32:05;13.20;45.80
72905;DHT22;61048;52.162;4.516;2023-02-28T15:34:35;13.20;46.10
72905;DHT22;61048;52.162;4.516;2023-02-28T15:39:50;13.20;46.10
72905;DHT22;61048;52.162;4.516;2023-02-28T15:42:19;13.10;45.70
72905;DHT22;61048;52.162;4.516;2023-02-28T15:44:46;13.10;45.70
72905;DHT22;61048;52.162;4.516;2023-02-28T15:47:19;13.10;45.70
72905;DHT22;61048;52.162;4.516;2023-02-28T15:49:49;13.10;45.10
72905;DHT22;61048;52.162;4.516;2023-02-28T15:52:17;13.10;45.60
72905;DHT22;61048;52.162;4.516;2023-02-28T15:54:46;13.10;45.60
72905;DHT22;61048;52.162;4.516;2023-02-28T15:57:17;13.10;45.60
72905;DHT22;61048;52.162;4.516;2023-02-28T15:59:50;13.10;45.70
72905;DHT22;61048;52.162;4.516;2023-02-28T16:02:20;13.10;45.50
72905;DHT22;61048;52.162;4.516;2023-02-28T16:04:58;13.10;45.50
72905;DHT22;61048;52.162;4.516;2023-02-28T16:07:25;13.10;45.40
72905;DHT22;61048;52.162;4.516;2023-02-28T16:09:53;13.10;45.20
72905;DHT22;61048;52.162;4.516;2023-02-28T16:12:25;13.10;45.40
72905;DHT22;61048;52.162;4.516;2023-02-28T16:14:54;13.10;45.40
72905;DHT22;61048;52.162;4.516;2023-02-28T16:17:23;13.10;45.50
72905;DHT22;61048;52.162;4.516;2023-02-28T16:19:50;13.10;45.50
72905;DHT22;61048;52.162;4.516;2023-02-28T16:22:17;13.10;45.40
72905;DHT22;61048;52.162;4.516;2023-02-28T16:24:44;13.10;45.50